createdAt,value
2018-09-14T00:02:05.760Z,65.00
2018-09-14T00:12:09.959Z,65.10
2018-09-14T00:22:13.177Z,65.20
2018-09-14T00:32:16.380Z,65.70
2018-09-14T00:42:19.651Z,67.00
2018-09-14T00:52:22.860Z,67.80
2018-09-14T01:02:26.092Z,67.50
2018-09-14T01:12:29.356Z,67.70
2018-09-14T01:22:32.592Z,67.80
2018-09-14T01:32:35.817Z,68.00
2018-09-14T01:42:39.049Z,68.30
2018-09-14T01:52:42.265Z,67.90
2018-09-14T02:02:45.494Z,68.10
2018-09-14T02:12:48.785Z,67.30
2018-09-14T02:22:52.000Z,67.10
2018-09-14T02:32:55.209Z,66.80
2018-09-14T02:42:58.467Z,67.80
2018-09-14T02:53:01.726Z,68.10
2018-09-14T03:03:04.967Z,68.50
2018-09-14T03:13:08.243Z,68.20
2018-09-14T03:23:11.463Z,68.10
2018-09-14T03:33:14.691Z,67.50
2018-09-14T03:43:17.935Z,68.70
2018-09-14T03:53:21.198Z,68.20
2018-09-14T04:03:24.448Z,68.20
2018-09-14T04:13:27.708Z,67.90
2018-09-14T04:23:30.973Z,68.40
2018-09-14T04:33:34.184Z,69.10
2018-09-14T04:43:37.437Z,69.10
2018-09-14T04:53:40.704Z,69.20
2018-09-14T05:03:43.920Z,68.80
2018-09-14T05:13:47.172Z,69.50
2018-09-14T05:23:50.426Z,69.20
2018-09-14T05:33:53.620Z,68.60
2018-09-14T05:43:56.901Z,68.40
2018-09-14T05:54:00.116Z,68.50
2018-09-14T06:04:03.449Z,68.30
2018-09-14T06:14:06.965Z,67.90
2018-09-14T06:24:10.221Z,67.70
2018-09-14T06:34:13.489Z,67.30
2018-09-14T06:44:16.845Z,66.50
2018-09-14T06:54:20.425Z,66.90
2018-09-14T07:04:23.703Z,66.40
2018-09-14T07:14:27.223Z,66.20
2018-09-14T07:24:30.553Z,66.00
2018-09-14T07:34:33.752Z,66.10
2018-09-14T07:44:36.986Z,67.60
2018-09-14T07:54:40.217Z,68.10
2018-09-14T08:13:05.801Z,70.70
2018-09-14T08:23:09.005Z,70.30
2018-09-14T08:33:12.240Z,69.20
2018-09-14T08:43:15.445Z,68.70
2018-09-14T08:53:18.762Z,68.70
2018-09-14T09:03:21.988Z,68.60
2018-09-14T09:13:25.237Z,68.20
2018-09-14T09:23:28.690Z,67.20
2018-09-14T09:33:31.861Z,66.40
2018-09-14T09:43:35.244Z,65.90
2018-09-14T09:53:38.388Z,65.50
2018-09-14T10:03:44.266Z,64.20
2018-09-14T10:13:48.152Z,62.80
2018-09-14T10:23:51.378Z,62.30
2018-09-14T10:33:54.600Z,61.70
2018-09-14T10:43:57.910Z,60.60
2018-09-14T10:54:01.109Z,60.30
2018-09-14T11:04:04.376Z,59.00
2018-09-14T11:14:07.948Z,57.90
2018-09-14T11:24:11.256Z,58.30
2018-09-14T11:34:14.505Z,55.70
2018-09-14T11:44:17.752Z,54.40
2018-09-14T11:54:21.061Z,55.60
2018-09-14T12:04:24.210Z,54.70
2018-09-14T12:14:27.454Z,55.90
2018-09-14T12:24:30.677Z,56.00
2018-09-14T12:34:33.936Z,56.30
2018-09-14T12:44:37.176Z,57.10
2018-09-14T12:54:40.420Z,57.20
2018-09-14T13:04:43.661Z,58.20
2018-09-14T13:14:47.884Z,57.60
2018-09-14T13:24:51.084Z,57.20
2018-09-14T13:34:54.292Z,56.40
2018-09-14T13:44:57.554Z,55.80
2018-09-14T13:55:00.986Z,55.10
2018-09-14T14:05:04.328Z,54.20
2018-09-14T14:15:07.737Z,55.10
2018-09-14T14:25:11.029Z,55.50
2018-09-14T14:35:14.260Z,54.80
2018-09-14T14:45:17.919Z,54.20
2018-09-14T14:55:21.152Z,53.90
2018-09-14T15:05:24.358Z,53.90
2018-09-14T15:15:27.589Z,53.30
2018-09-14T15:25:31.292Z,53.80
2018-09-14T15:35:34.639Z,54.40
2018-09-14T15:45:37.976Z,55.20
2018-09-14T15:55:41.448Z,55.30
2018-09-14T16:05:44.673Z,55.30
2018-09-14T16:15:47.952Z,54.80
2018-09-14T16:25:51.178Z,54.80
2018-09-14T16:35:54.587Z,55.70
2018-09-14T16:45:57.956Z,56.40
2018-09-14T16:56:01.217Z,56.30
2018-09-14T17:06:04.556Z,57.40
2018-09-14T17:16:07.903Z,57.70
2018-09-14T17:26:11.252Z,57.80
2018-09-14T17:36:14.582Z,58.40
2018-09-14T17:46:17.956Z,58.80
2018-09-14T17:56:21.272Z,59.50
2018-09-14T18:06:24.648Z,59.80
2018-09-14T18:16:28.078Z,60.00
2018-09-14T18:26:31.375Z,60.40
2018-09-14T18:36:34.644Z,60.40
2018-09-14T18:46:38.172Z,61.90
2018-09-14T18:56:41.624Z,61.70
2018-09-14T19:06:44.971Z,61.80
2018-09-14T19:16:48.344Z,61.50
2018-09-14T19:26:51.712Z,60.80
2018-09-14T19:36:55.008Z,62.10
2018-09-14T19:46:58.384Z,62.70
2018-09-14T19:57:01.845Z,62.50
2018-09-14T20:07:05.494Z,63.50
2018-09-14T20:17:09.027Z,63.40
2018-09-14T20:27:12.352Z,63.00
2018-09-14T20:37:15.751Z,62.90
2018-09-14T20:47:19.060Z,63.40
2018-09-14T20:57:22.598Z,63.80
2018-09-14T21:07:26.073Z,64.00
2018-09-14T21:17:29.391Z,64.10
2018-09-14T21:27:32.716Z,64.30
2018-09-14T21:37:36.084Z,65.20
2018-09-14T21:47:39.464Z,64.70
2018-09-14T21:57:42.756Z,65.00
2018-09-14T22:07:46.158Z,65.10
2018-09-14T22:17:49.447Z,64.60
2018-09-14T22:27:52.800Z,64.60
2018-09-14T22:37:56.144Z,64.50
2018-09-14T22:47:59.520Z,64.70
2018-09-14T22:58:02.761Z,64.70
2018-09-14T23:08:06.157Z,67.40
2018-09-14T23:18:09.545Z,68.70
2018-09-14T23:28:12.828Z,69.10
2018-09-14T23:38:16.036Z,69.10
2018-09-14T23:48:19.548Z,70.40
2018-09-14T23:58:22.887Z,71.00
